Sudbury, Massachusetts
Current Conditions -  °F | °C
As of 11:56 AM on Friday 19 Dec 2014 (Local Time) from KBED Reporting Station
Overcast Overcast  
Wind Chill: 25°   Ceiling: 3200
Heat Index: 33°   Visibility: 10mi
Dew Point: 21°   Wind: 10mph
Humidity: 61%   Direction: 300°WNW
Pressure: 29.94"   Gusts: 18mph
Location:  42.38°N, 71.41°W
Report Text: KBED 191656Z 30009G16KT 10SM OVC032 01/M06 A2994 RMK AO2 SLP153 T00061061
Loading
Personal Weather Stations






























Interactive Weather Map New forecast layout! Learn more

10-Day Weather Forecast

Advertisements
Track Severe Weather on mobile